createdAt,value
2023-03-31T00:01:58.382Z,11.40
2023-03-31T00:04:04.926Z,7.30
2023-03-31T00:06:12.178Z,9.40
2023-03-31T00:08:17.470Z,8.10
2023-03-31T00:10:20.124Z,9.40
2023-03-31T00:12:22.595Z,8.10
2023-03-31T00:14:25.162Z,7.20
2023-03-31T00:16:28.282Z,7.90
2023-03-31T00:18:31.380Z,8.40
2023-03-31T00:20:38.699Z,7.30
2023-03-31T00:22:46.481Z,6.90
2023-03-31T00:24:53.693Z,9.40
2023-03-31T00:26:57.516Z,9.90
2023-03-31T00:29:01.402Z,8.70
2023-03-31T00:31:07.068Z,15.30
2023-03-31T00:33:10.413Z,5.70
2023-03-31T00:35:13.828Z,8.60
2023-03-31T00:37:16.769Z,7.00
2023-03-31T00:39:19.579Z,7.60
2023-03-31T00:41:25.716Z,8.10
2023-03-31T00:43:34.813Z,7.40
2023-03-31T00:45:37.909Z,3.90
2023-03-31T00:47:44.358Z,5.90
2023-03-31T00:49:50.693Z,5.70
2023-03-31T00:52:00.124Z,6.60
2023-03-31T00:54:08.399Z,5.40
2023-03-31T00:56:15.746Z,3.50
2023-03-31T00:58:22.981Z,4.30
2023-03-31T01:00:32.475Z,11.60
2023-03-31T01:02:41.418Z,12.10
2023-03-31T01:04:51.032Z,7.30
2023-03-31T01:07:04.551Z,8.60
2023-03-31T01:09:07.257Z,12.20
2023-03-31T01:11:14.534Z,7.00
2023-03-31T01:13:20.503Z,9.10
2023-03-31T01:15:23.172Z,5.20
2023-03-31T01:17:28.318Z,7.70
2023-03-31T01:19:56.172Z,4.90
2023-03-31T01:22:20.576Z,8.60
2023-03-31T01:24:51.990Z,3.70
2023-03-31T01:27:34.980Z,5.30
2023-03-31T01:30:21.494Z,6.10
2023-03-31T01:32:56.463Z,4.80
2023-03-31T01:35:57.533Z,5.30
2023-03-31T01:38:57.482Z,7.30
2023-03-31T01:41:25.003Z,5.70
2023-03-31T01:43:36.384Z,5.10
2023-03-31T01:46:21.486Z,7.70
2023-03-31T01:49:14.864Z,5.30
2023-03-31T01:51:33.987Z,5.30
2023-03-31T01:53:55.845Z,4.60
2023-03-31T01:56:08.880Z,5.00
2023-03-31T01:58:14.099Z,4.70
2023-03-31T02:00:20.869Z,5.40
2023-03-31T02:02:30.004Z,6.80
2023-03-31T02:04:46.622Z,8.40
2023-03-31T02:06:57.435Z,3.50
2023-03-31T02:09:09.432Z,5.50
2023-03-31T02:11:14.215Z,4.10
2023-03-31T02:13:19.225Z,3.20
2023-03-31T02:15:28.650Z,6.90
2023-03-31T02:17:32.995Z,5.30
2023-03-31T02:19:39.872Z,6.00
2023-03-31T02:21:43.291Z,4.20
2023-03-31T02:23:50.924Z,6.90
2023-03-31T02:26:00.980Z,4.50
2023-03-31T02:28:14.324Z,5.20
2023-03-31T02:30:17.484Z,5.70
2023-03-31T02:32:28.050Z,4.30
2023-03-31T02:34:31.036Z,5.60
2023-03-31T02:36:36.567Z,5.90
2023-03-31T02:38:46.200Z,4.40
2023-03-31T02:40:49.039Z,4.20
2023-03-31T02:42:52.863Z,6.50
2023-03-31T02:45:02.592Z,7.30
2023-03-31T02:47:10.340Z,8.40
2023-03-31T02:49:14.126Z,3.80
2023-03-31T02:51:41.697Z,6.10
2023-03-31T02:53:59.779Z,5.50
2023-03-31T02:56:27.492Z,5.70
2023-03-31T02:58:34.670Z,5.80
2023-03-31T03:01:25.638Z,6.80
2023-03-31T03:03:35.419Z,6.60
2023-03-31T03:05:58.865Z,5.10
2023-03-31T03:08:55.663Z,5.40
2023-03-31T03:13:46.032Z,5.80
2023-03-31T03:15:58.809Z,4.80
2023-03-31T03:18:03.270Z,6.30
2023-03-31T03:20:09.334Z,7.20
2023-03-31T03:22:15.585Z,10.70
2023-03-31T03:24:19.807Z,6.10
2023-03-31T03:26:24.396Z,6.50
2023-03-31T03:28:27.687Z,6.10
2023-03-31T03:30:30.569Z,6.60
2023-03-31T03:32:34.946Z,5.10
2023-03-31T03:34:39.948Z,6.60
2023-03-31T03:36:43.139Z,5.20
2023-03-31T03:38:47.417Z,11.10
2023-03-31T03:40:53.569Z,8.30
2023-03-31T03:42:56.845Z,5.60
2023-03-31T03:44:59.505Z,5.20
2023-03-31T03:47:02.709Z,5.80
2023-03-31T03:49:05.465Z,5.90
2023-03-31T03:51:09.458Z,5.50
2023-03-31T03:53:13.802Z,5.50
2023-03-31T03:55:17.854Z,6.70
2023-03-31T03:57:22.077Z,7.60
2023-03-31T03:59:24.998Z,5.20
2023-03-31T04:01:29.735Z,7.20
2023-03-31T04:03:33.750Z,7.80
2023-03-31T04:05:36.363Z,5.00
2023-03-31T04:07:38.786Z,5.00
2023-03-31T04:09:41.490Z,5.00
2023-03-31T04:11:44.024Z,10.60
2023-03-31T04:13:47.351Z,5.70
2023-03-31T04:15:51.647Z,8.70
2023-03-31T04:17:56.743Z,5.50
2023-03-31T04:20:09.487Z,5.90
2023-03-31T04:22:16.588Z,5.80
2023-03-31T04:24:21.823Z,6.50
2023-03-31T04:26:39.268Z,7.30
2023-03-31T04:28:50.638Z,7.90
2023-03-31T04:30:58.894Z,4.40
2023-03-31T04:33:06.693Z,5.90
2023-03-31T04:35:16.167Z,5.60
2023-03-31T04:39:31.037Z,6.50
2023-03-31T04:41:34.792Z,8.40
2023-03-31T04:43:39.698Z,7.10
2023-03-31T04:45:44.733Z,5.90
2023-03-31T04:47:48.514Z,6.00
2023-03-31T04:49:52.775Z,6.00
2023-03-31T04:51:56.334Z,7.60
2023-03-31T04:53:58.776Z,10.90
2023-03-31T04:56:01.714Z,6.60
2023-03-31T04:58:04.497Z,6.30
2023-03-31T05:00:14.269Z,5.40
2023-03-31T05:02:25.183Z,4.80
2023-03-31T05:04:28.008Z,7.40
2023-03-31T05:06:31.110Z,7.80
2023-03-31T05:08:34.190Z,6.50
2023-03-31T05:10:37.363Z,7.20
2023-03-31T05:12:40.163Z,5.20
2023-03-31T05:14:44.032Z,7.00
2023-03-31T05:16:46.884Z,7.60
2023-03-31T05:18:49.408Z,6.10
2023-03-31T05:20:51.986Z,4.70
2023-03-31T05:22:54.531Z,7.40
2023-03-31T05:24:57.952Z,6.60
2023-03-31T05:27:02.688Z,5.90
2023-03-31T05:29:05.514Z,5.80
2023-03-31T05:31:09.890Z,8.30
2023-03-31T05:33:12.445Z,10.00
2023-03-31T05:35:16.209Z,6.70
2023-03-31T05:37:20.934Z,7.10
2023-03-31T05:39:23.443Z,5.50
2023-03-31T05:41:27.249Z,6.60
2023-03-31T05:43:32.065Z,4.20
2023-03-31T05:45:35.654Z,13.00
2023-03-31T05:47:39.062Z,7.60
2023-03-31T05:49:41.559Z,5.50
2023-03-31T05:51:44.813Z,7.10
2023-03-31T05:53:47.758Z,6.90
2023-03-31T05:55:50.267Z,5.20
2023-03-31T05:57:53.998Z,6.20
2023-03-31T05:59:56.728Z,6.50
2023-03-31T06:01:59.437Z,6.40
2023-03-31T06:04:03.270Z,5.40
2023-03-31T06:06:08.136Z,7.80
2023-03-31T06:08:11.789Z,5.50
2023-03-31T06:10:16.013Z,6.20
2023-03-31T06:12:20.066Z,6.90
2023-03-31T06:14:23.167Z,5.70
2023-03-31T06:16:26.721Z,6.80
2023-03-31T06:18:31.912Z,6.70
2023-03-31T06:20:36.593Z,6.70
2023-03-31T06:22:39.094Z,6.30
2023-03-31T06:24:41.889Z,7.50
2023-03-31T06:26:47.272Z,4.60
2023-03-31T06:28:49.832Z,4.80
2023-03-31T06:31:03.872Z,6.50
2023-03-31T06:33:07.280Z,6.50
2023-03-31T06:35:10.382Z,5.40
2023-03-31T06:37:12.937Z,8.20
2023-03-31T06:39:15.523Z,8.40
2023-03-31T06:41:22.311Z,9.80
2023-03-31T06:43:25.221Z,6.00
2023-03-31T06:45:27.980Z,4.90
2023-03-31T06:47:31.371Z,5.90
2023-03-31T06:49:33.930Z,4.50
2023-03-31T06:51:39.058Z,6.20
2023-03-31T06:53:42.212Z,5.50
2023-03-31T06:55:47.341Z,7.70
2023-03-31T06:57:49.912Z,6.00
2023-03-31T06:59:53.403Z,7.20
2023-03-31T07:01:58.322Z,7.80
2023-03-31T07:04:01.934Z,9.00
2023-03-31T07:06:06.014Z,9.50
2023-03-31T07:08:14.694Z,7.20
2023-03-31T07:10:21.092Z,4.50
2023-03-31T07:12:24.954Z,7.60
2023-03-31T07:14:27.501Z,7.00
2023-03-31T07:16:32.281Z,6.20
2023-03-31T07:18:36.560Z,7.00
2023-03-31T07:20:39.141Z,6.80
2023-03-31T07:22:48.469Z,9.80
2023-03-31T07:24:58.779Z,5.90
2023-03-31T07:27:03.002Z,8.70
2023-03-31T07:29:06.590Z,6.40
2023-03-31T07:31:16.070Z,8.80
2023-03-31T07:33:18.987Z,5.10
2023-03-31T07:35:23.041Z,8.10
2023-03-31T07:37:26.387Z,7.90
2023-03-31T07:39:29.206Z,8.20
2023-03-31T07:41:32.465Z,8.40
2023-03-31T07:43:35.818Z,7.50
2023-03-31T07:45:39.654Z,8.80
2023-03-31T07:47:44.581Z,8.60
2023-03-31T07:49:48.345Z,7.40
2023-03-31T07:51:51.978Z,9.90
2023-03-31T07:53:55.389Z,5.50
2023-03-31T07:55:58.681Z,7.90
2023-03-31T07:58:08.243Z,8.20
2023-03-31T08:00:12.808Z,5.70
2023-03-31T08:02:17.789Z,6.90
2023-03-31T08:04:22.164Z,5.10
2023-03-31T08:06:26.299Z,6.20
2023-03-31T08:08:30.078Z,6.80
2023-03-31T08:10:32.597Z,5.50
2023-03-31T08:12:35.120Z,5.30
2023-03-31T08:14:41.277Z,6.00
2023-03-31T08:16:45.016Z,6.70
2023-03-31T08:18:48.769Z,6.70
2023-03-31T08:20:51.767Z,7.00
2023-03-31T08:22:55.446Z,6.50
2023-03-31T08:24:58.444Z,5.90
2023-03-31T08:27:01.803Z,4.50
2023-03-31T08:29:06.072Z,5.40
2023-03-31T08:31:10.866Z,4.50
2023-03-31T08:33:15.244Z,5.40
2023-03-31T08:35:19.318Z,5.60
2023-03-31T08:37:22.216Z,5.80
2023-03-31T08:39:26.089Z,8.30
2023-03-31T08:42:08.821Z,8.10
2023-03-31T08:44:21.173Z,6.80
2023-03-31T08:46:28.265Z,7.00
2023-03-31T08:48:38.957Z,6.10
2023-03-31T08:50:48.256Z,6.30
2023-03-31T08:53:07.162Z,6.50
2023-03-31T08:55:22.279Z,5.80
2023-03-31T08:57:32.157Z,5.50
2023-03-31T08:59:39.972Z,7.30
2023-03-31T09:02:02.293Z,4.70
2023-03-31T09:04:29.473Z,6.90
2023-03-31T09:07:10.763Z,6.30
2023-03-31T09:09:32.550Z,5.20
2023-03-31T09:11:40.722Z,6.50
2023-03-31T09:13:59.189Z,5.50
2023-03-31T09:16:17.457Z,8.60
2023-03-31T09:18:32.598Z,6.10
2023-03-31T09:20:41.340Z,5.30
2023-03-31T09:23:00.570Z,5.10
2023-03-31T09:25:28.741Z,4.70
2023-03-31T09:27:39.210Z,6.60
2023-03-31T09:29:43.745Z,6.60
2023-03-31T09:31:47.271Z,5.40
2023-03-31T09:33:55.136Z,7.70
2023-03-31T09:36:02.337Z,5.70
2023-03-31T09:38:05.155Z,6.70
2023-03-31T09:40:14.654Z,5.40
2023-03-31T09:42:19.544Z,5.80
2023-03-31T09:44:28.277Z,8.30
2023-03-31T09:46:35.696Z,5.70
2023-03-31T09:48:40.186Z,4.90
2023-03-31T09:50:51.794Z,5.70
2023-03-31T09:53:00.795Z,8.40
2023-03-31T09:55:35.888Z,6.20
2023-03-31T09:57:40.010Z,8.90
2023-03-31T09:59:44.838Z,9.80
2023-03-31T10:01:52.276Z,5.60
2023-03-31T10:03:58.357Z,4.40
2023-03-31T10:06:01.371Z,4.10
2023-03-31T10:08:21.094Z,5.20
2023-03-31T10:10:33.263Z,6.40
2023-03-31T10:14:45.302Z,5.10
2023-03-31T10:16:52.991Z,5.40
2023-03-31T10:19:17.535Z,5.40
2023-03-31T10:21:26.384Z,7.80
2023-03-31T10:23:34.802Z,4.70
2023-03-31T10:25:38.896Z,6.60
2023-03-31T10:27:42.371Z,5.40
2023-03-31T10:29:47.270Z,6.90
2023-03-31T10:31:52.236Z,6.30
2023-03-31T10:33:59.321Z,6.80
2023-03-31T10:36:20.448Z,5.20
2023-03-31T10:38:29.142Z,4.00
2023-03-31T10:40:36.403Z,5.50
2023-03-31T10:42:39.543Z,5.60
2023-03-31T10:44:45.056Z,3.60
2023-03-31T10:46:52.962Z,6.20
2023-03-31T10:49:00.394Z,5.00
2023-03-31T10:51:17.338Z,2.70
2023-03-31T10:53:21.217Z,3.10
2023-03-31T10:55:32.137Z,3.80
2023-03-31T10:57:45.440Z,3.30
2023-03-31T11:00:01.904Z,3.50
2023-03-31T11:02:35.678Z,3.60
2023-03-31T11:05:15.926Z,5.20
2023-03-31T11:07:43.464Z,4.10
2023-03-31T11:10:25.670Z,4.10
2023-03-31T11:12:58.873Z,3.70
2023-03-31T11:15:33.324Z,3.10
2023-03-31T11:17:57.114Z,3.80
2023-03-31T11:20:14.944Z,3.40
2023-03-31T11:22:34.323Z,3.10
2023-03-31T11:25:03.436Z,5.50
2023-03-31T11:27:42.129Z,3.10
2023-03-31T11:30:18.037Z,4.40
2023-03-31T11:32:30.718Z,3.30
2023-03-31T11:37:25.777Z,5.50
2023-03-31T11:40:07.999Z,4.50
2023-03-31T11:42:20.017Z,3.00
2023-03-31T11:44:25.958Z,3.80
2023-03-31T11:46:36.863Z,3.20
2023-03-31T11:48:59.157Z,5.30
2023-03-31T11:51:12.010Z,3.20
2023-03-31T11:53:22.587Z,3.40
2023-03-31T11:55:29.752Z,2.50
2023-03-31T11:57:41.679Z,3.30
2023-03-31T11:59:54.884Z,2.60
2023-03-31T12:02:20.393Z,4.80
2023-03-31T12:04:40.903Z,2.10
2023-03-31T12:06:49.945Z,2.80
2023-03-31T12:08:58.484Z,2.60
2023-03-31T12:11:09.519Z,1.70
2023-03-31T12:13:31.447Z,2.60
2023-03-31T12:15:51.650Z,4.50
2023-03-31T12:18:13.822Z,3.40
2023-03-31T12:20:59.198Z,2.00
2023-03-31T12:23:09.228Z,2.50
2023-03-31T12:25:19.998Z,3.90
2023-03-31T12:27:42.337Z,3.60
2023-03-31T12:29:59.403Z,3.10
2023-03-31T12:32:11.602Z,2.50
2023-03-31T12:34:18.319Z,2.30
2023-03-31T12:36:39.068Z,2.10
2023-03-31T12:39:10.128Z,4.70
2023-03-31T12:41:23.700Z,2.80
2023-03-31T12:43:48.848Z,3.70
2023-03-31T12:46:32.920Z,5.80
2023-03-31T12:49:00.158Z,2.20
2023-03-31T12:51:11.739Z,2.40
2023-03-31T12:53:33.509Z,3.40
2023-03-31T12:55:57.957Z,3.30
2023-03-31T12:58:26.963Z,3.90
2023-03-31T13:02:33.504Z,4.20
2023-03-31T13:04:38.353Z,2.70
2023-03-31T13:06:41.632Z,2.70
2023-03-31T13:09:06.043Z,2.90
2023-03-31T13:11:12.462Z,3.60
2023-03-31T13:13:39.427Z,3.50
2023-03-31T13:16:33.548Z,2.80
2023-03-31T13:19:13.721Z,3.00
2023-03-31T13:22:09.504Z,4.20
2023-03-31T13:24:47.491Z,3.10
2023-03-31T13:28:04.606Z,3.70
2023-03-31T13:30:53.717Z,3.10
2023-03-31T13:33:37.084Z,3.80
2023-03-31T13:36:45.590Z,3.10
2023-03-31T13:39:58.607Z,3.10
2023-03-31T13:43:00.624Z,5.00
2023-03-31T13:46:16.708Z,3.50
2023-03-31T13:49:31.593Z,2.70
2023-03-31T13:52:16.559Z,2.80
2023-03-31T13:55:46.861Z,3.40
2023-03-31T13:59:04.588Z,2.90
2023-03-31T14:01:50.637Z,3.00
2023-03-31T14:05:10.779Z,3.00
2023-03-31T14:08:00.744Z,4.30
2023-03-31T14:10:48.912Z,2.60
2023-03-31T14:13:30.160Z,6.20
2023-03-31T14:16:12.083Z,3.00
2023-03-31T14:18:55.878Z,5.20
2023-03-31T14:21:44.823Z,2.90
2023-03-31T14:24:30.581Z,3.40
2023-03-31T14:27:47.326Z,4.10
2023-03-31T14:31:05.638Z,2.70
2023-03-31T14:34:01.618Z,3.60
2023-03-31T14:37:11.762Z,3.30
2023-03-31T14:39:54.617Z,3.50
2023-03-31T14:42:36.761Z,2.70
2023-03-31T14:45:20.781Z,5.40
2023-03-31T14:48:20.420Z,2.80
2023-03-31T14:51:00.851Z,4.00
2023-03-31T14:53:44.389Z,2.30
2023-03-31T14:56:25.677Z,3.20
2023-03-31T14:59:13.525Z,3.50
2023-03-31T15:01:51.892Z,2.60
2023-03-31T15:04:42.049Z,4.90
2023-03-31T15:07:21.651Z,4.50
2023-03-31T15:10:07.213Z,3.00
2023-03-31T15:12:44.713Z,2.90
2023-03-31T15:15:27.671Z,6.70
2023-03-31T15:18:04.698Z,3.00
2023-03-31T15:20:51.746Z,4.70
2023-03-31T15:23:39.873Z,3.80
2023-03-31T15:26:28.036Z,4.90
2023-03-31T15:29:24.725Z,2.80
2023-03-31T15:32:04.198Z,3.00
2023-03-31T15:34:50.229Z,2.70
2023-03-31T15:37:28.718Z,4.20
2023-03-31T15:40:06.621Z,2.70
2023-03-31T15:43:01.498Z,3.00
2023-03-31T15:45:48.044Z,1.80
2023-03-31T15:49:01.332Z,2.90
2023-03-31T15:51:48.899Z,3.40
2023-03-31T15:54:51.727Z,4.30
2023-03-31T15:57:31.742Z,4.10
2023-03-31T16:00:12.472Z,4.60
2023-03-31T16:02:55.902Z,5.10
2023-03-31T16:05:54.411Z,3.20
2023-03-31T16:08:44.765Z,2.60
2023-03-31T16:11:26.845Z,2.20
2023-03-31T16:14:09.637Z,3.90
2023-03-31T16:16:47.779Z,3.20
2023-03-31T16:19:26.805Z,2.70
2023-03-31T16:22:11.809Z,2.40
2023-03-31T16:27:32.835Z,1.50
2023-03-31T16:30:30.086Z,2.70
2023-03-31T16:33:23.809Z,5.40
2023-03-31T16:36:07.193Z,3.10
2023-03-31T16:38:47.876Z,2.30
2023-03-31T16:41:24.790Z,3.10
2023-03-31T16:44:01.885Z,2.20
2023-03-31T16:46:39.192Z,1.90
2023-03-31T16:49:15.862Z,5.00
2023-03-31T16:52:03.910Z,3.00
2023-03-31T16:54:42.236Z,3.50
2023-03-31T16:57:20.854Z,4.40
2023-03-31T16:59:59.039Z,2.30
2023-03-31T17:02:40.042Z,2.00
2023-03-31T17:05:16.966Z,6.20
2023-03-31T17:07:55.843Z,2.50
2023-03-31T17:10:34.977Z,2.80
2023-03-31T17:13:16.630Z,3.10
2023-03-31T17:16:01.396Z,2.90
2023-03-31T17:18:52.796Z,3.00
2023-03-31T17:21:31.940Z,2.00
2023-03-31T17:24:09.097Z,3.00
2023-03-31T17:26:46.911Z,4.80
2023-03-31T17:29:23.877Z,2.60
2023-03-31T17:32:04.224Z,3.00
2023-03-31T17:34:40.911Z,4.10
2023-03-31T17:37:18.362Z,2.90
2023-03-31T17:39:55.056Z,2.40
2023-03-31T17:42:32.903Z,3.60
2023-03-31T17:45:12.013Z,2.30
2023-03-31T17:47:48.970Z,2.90
2023-03-31T17:50:25.962Z,2.90
2023-03-31T17:53:02.924Z,3.00
2023-03-31T17:55:41.037Z,3.40
2023-03-31T17:58:19.981Z,5.30
2023-03-31T18:00:59.957Z,2.40
2023-03-31T18:03:38.176Z,2.50
2023-03-31T18:06:25.093Z,7.90
2023-03-31T18:09:05.069Z,2.50
2023-03-31T18:11:41.990Z,3.70
2023-03-31T18:14:20.972Z,3.60
2023-03-31T18:17:00.921Z,2.50
2023-03-31T18:19:40.256Z,2.40
2023-03-31T18:22:13.962Z,3.20
2023-03-31T18:24:53.008Z,2.80
2023-03-31T18:27:30.056Z,3.00
2023-03-31T18:30:07.057Z,3.70
2023-03-31T18:32:45.085Z,2.30
2023-03-31T18:35:23.198Z,2.80
2023-03-31T18:38:03.068Z,3.00
2023-03-31T18:40:41.001Z,4.40
2023-03-31T18:43:19.224Z,2.50
2023-03-31T18:45:56.977Z,2.10
2023-03-31T18:48:35.210Z,5.00
2023-03-31T18:51:12.019Z,2.70
2023-03-31T18:53:49.150Z,2.50
2023-03-31T18:56:28.109Z,4.10
2023-03-31T18:59:14.168Z,2.20
2023-03-31T19:01:52.284Z,2.20
2023-03-31T19:04:30.085Z,3.00
2023-03-31T19:07:10.336Z,3.10
2023-03-31T19:09:47.068Z,3.40
2023-03-31T19:12:26.422Z,2.90
2023-03-31T19:15:03.053Z,3.00
2023-03-31T19:17:40.109Z,2.50
2023-03-31T19:20:24.426Z,2.80
2023-03-31T19:23:07.195Z,2.40
2023-03-31T19:25:46.134Z,3.20
2023-03-31T19:28:30.203Z,4.00
2023-03-31T19:31:14.414Z,3.00
2023-03-31T19:36:33.491Z,2.80
2023-03-31T19:39:15.820Z,2.90
2023-03-31T19:41:52.305Z,3.00
2023-03-31T19:44:32.549Z,6.70
2023-03-31T19:47:11.876Z,3.20
2023-03-31T19:49:50.182Z,3.10
2023-03-31T19:52:30.105Z,5.50
2023-03-31T19:55:15.274Z,2.20
2023-03-31T19:57:52.336Z,3.80
2023-03-31T20:00:33.556Z,3.10
2023-03-31T20:03:11.605Z,2.40
2023-03-31T20:05:51.125Z,3.00
2023-03-31T20:08:31.161Z,6.60
2023-03-31T20:11:14.299Z,2.60
2023-03-31T20:13:53.370Z,2.20
2023-03-31T20:16:38.669Z,2.60
2023-03-31T20:19:21.667Z,2.50
2023-03-31T20:22:04.099Z,2.20
2023-03-31T20:24:42.251Z,2.50
2023-03-31T20:27:20.842Z,4.80
2023-03-31T20:29:58.753Z,3.40
2023-03-31T20:32:37.243Z,2.60
2023-03-31T20:35:16.179Z,2.80
2023-03-31T20:37:53.509Z,2.90
2023-03-31T20:40:30.224Z,4.40
2023-03-31T20:43:08.220Z,3.30
2023-03-31T20:45:45.271Z,4.90
2023-03-31T20:48:22.227Z,3.80
2023-03-31T20:50:59.235Z,2.20
2023-03-31T20:53:36.149Z,2.50
2023-03-31T20:56:14.294Z,3.00
2023-03-31T20:58:54.212Z,2.20
2023-03-31T21:01:32.655Z,3.60
2023-03-31T21:04:09.227Z,3.30
2023-03-31T21:06:55.496Z,1.90
2023-03-31T21:09:35.057Z,2.00
2023-03-31T21:12:14.723Z,2.30
2023-03-31T21:14:52.302Z,2.50
2023-03-31T21:17:34.272Z,2.70
2023-03-31T21:20:11.207Z,2.30
2023-03-31T21:22:48.251Z,2.50
2023-03-31T21:25:27.316Z,2.70
2023-03-31T21:28:08.079Z,2.40
2023-03-31T21:30:45.334Z,3.20
2023-03-31T21:33:22.332Z,2.70
2023-03-31T21:36:01.601Z,4.60
2023-03-31T21:38:39.329Z,3.40
2023-03-31T21:41:32.831Z,2.70
2023-03-31T21:44:11.333Z,3.90
2023-03-31T21:46:52.908Z,2.00
2023-03-31T21:49:32.873Z,2.20
2023-03-31T21:52:09.321Z,4.60
2023-03-31T21:54:47.340Z,1.90
2023-03-31T21:57:27.202Z,6.60
2023-03-31T22:00:04.536Z,2.20
2023-03-31T22:02:42.444Z,2.40
2023-03-31T22:05:20.375Z,2.70
2023-03-31T22:07:57.441Z,2.00
2023-03-31T22:10:36.331Z,2.60
2023-03-31T22:13:15.323Z,2.90
2023-03-31T22:15:57.304Z,2.00
2023-03-31T22:18:36.243Z,3.80
2023-03-31T22:21:14.653Z,1.80
2023-03-31T22:23:53.417Z,1.90
2023-03-31T22:26:36.358Z,3.00
2023-03-31T22:29:13.353Z,1.80
2023-03-31T22:31:50.359Z,3.30
2023-03-31T22:34:29.325Z,2.10
2023-03-31T22:37:06.353Z,1.60
2023-03-31T22:39:43.488Z,4.60
2023-03-31T22:42:20.367Z,1.70
2023-03-31T22:44:58.824Z,4.90
2023-03-31T22:47:35.383Z,2.70
2023-03-31T22:50:16.497Z,1.60
2023-03-31T22:52:57.624Z,2.10
2023-03-31T22:55:38.374Z,1.80
2023-03-31T22:58:23.379Z,3.00
2023-03-31T23:01:09.365Z,1.70
2023-03-31T23:03:46.446Z,4.30
2023-03-31T23:06:28.720Z,1.90
2023-03-31T23:09:06.546Z,2.30
2023-03-31T23:11:43.364Z,3.20
2023-03-31T23:14:25.408Z,2.20
2023-03-31T23:17:02.459Z,2.20
2023-03-31T23:19:40.408Z,2.20
2023-03-31T23:22:17.423Z,2.80
2023-03-31T23:24:54.421Z,2.50
2023-03-31T23:27:31.432Z,2.50
2023-03-31T23:30:08.490Z,4.30
2023-03-31T23:32:45.519Z,2.20
2023-03-31T23:35:24.827Z,2.30
2023-03-31T23:38:01.469Z,1.40
2023-03-31T23:40:38.758Z,2.00
2023-03-31T23:43:15.554Z,3.20
2023-03-31T23:45:52.466Z,1.80
2023-03-31T23:48:31.489Z,3.40
2023-03-31T23:51:09.484Z,2.50
2023-03-31T23:53:46.506Z,2.30
2023-03-31T23:56:26.495Z,2.50
2023-03-31T23:59:03.472Z,3.00
